createdAt,value
2023-04-02T13:46:06.710Z,100708.69
2023-04-02T13:48:34.007Z,100704.19
2023-04-02T13:51:01.680Z,100714.13
2023-04-02T13:53:33.528Z,100710.25
2023-04-02T13:56:00.751Z,100722.53
2023-04-02T13:58:27.415Z,100727.56
2023-04-02T14:00:54.181Z,100732.56
2023-04-02T14:03:22.675Z,100738.16
2023-04-02T14:06:32.609Z,100741.81
2023-04-02T14:09:04.316Z,100749.50
2023-04-02T14:11:46.347Z,100755.13
2023-04-02T14:14:48.377Z,100753.69
2023-04-02T14:17:43.377Z,100764.09
2023-04-02T14:20:41.254Z,100768.91
2023-04-02T14:23:31.363Z,100778.16
2023-04-02T14:26:26.432Z,100780.28
2023-04-02T14:29:24.061Z,100782.09
2023-04-02T14:32:12.387Z,100781.66
2023-04-02T14:35:02.819Z,100791.91
2023-04-02T14:37:54.520Z,100797.25
2023-04-02T14:40:42.981Z,100797.06
2023-04-02T14:43:31.367Z,100795.41
2023-04-02T14:46:04.099Z,100795.13
2023-04-02T14:48:42.526Z,100803.19
2023-04-02T14:51:22.260Z,100808.88
2023-04-02T14:53:58.153Z,100813.94
2023-04-02T14:56:25.750Z,100817.94
2023-04-02T14:59:07.562Z,100824.56
2023-04-02T15:01:40.853Z,100823.44
2023-04-02T15:04:31.000Z,100830.47
2023-04-02T15:07:05.012Z,100835.03
2023-04-02T15:09:38.045Z,100839.28
2023-04-02T15:12:30.952Z,100844.91
2023-04-02T15:15:38.892Z,100846.63
2023-04-02T15:18:11.500Z,100845.91
2023-04-02T15:20:46.104Z,100855.75
2023-04-02T15:23:23.170Z,100858.94
2023-04-02T15:26:15.366Z,100865.03
2023-04-02T15:29:28.869Z,100860.97
2023-04-02T15:32:33.464Z,100871.78
2023-04-02T15:35:25.752Z,100873.28
2023-04-02T15:38:01.607Z,100881.47
2023-04-02T15:40:39.961Z,100886.56
2023-04-02T15:43:14.394Z,100895.31
2023-04-02T15:46:12.260Z,100899.25
2023-04-02T15:48:51.300Z,100894.53
2023-04-02T15:51:41.637Z,100890.75
2023-04-02T15:54:27.016Z,100891.38
2023-04-02T15:57:02.585Z,100896.97
2023-04-02T16:00:00.680Z,100902.88
2023-04-02T16:02:55.472Z,100910.16
2023-04-02T16:05:40.866Z,100914.66
2023-04-02T16:08:44.160Z,100915.97
2023-04-02T16:11:13.539Z,100928.00
2023-04-02T16:13:42.364Z,100922.00
2023-04-02T16:16:34.305Z,100924.69
2023-04-02T16:19:05.438Z,100933.59
2023-04-02T16:22:06.695Z,100932.59
2023-04-02T16:24:33.488Z,100940.16
2023-04-02T16:27:20.339Z,100947.03
2023-04-02T16:30:07.939Z,100950.34
2023-04-02T16:33:05.692Z,100948.31
2023-04-02T16:35:48.045Z,100957.47
2023-04-02T16:38:29.748Z,100962.88
2023-04-02T16:41:09.214Z,100971.16
2023-04-02T16:44:20.554Z,100975.06
2023-04-02T16:47:04.369Z,100981.63
2023-04-02T16:49:49.974Z,100988.66
2023-04-02T16:52:19.393Z,100994.84
2023-04-02T16:55:19.633Z,100994.81
2023-04-02T16:58:07.467Z,101001.03
2023-04-02T17:00:46.052Z,101011.31
2023-04-02T17:03:26.270Z,101011.72
2023-04-02T17:06:05.013Z,101025.13
2023-04-02T17:08:42.504Z,101017.91
2023-04-02T17:11:21.424Z,101031.88
2023-04-02T17:14:12.281Z,101041.38
2023-04-02T17:16:44.904Z,101039.06
2023-04-02T17:19:14.410Z,101043.63
2023-04-02T17:21:45.340Z,101051.47
2023-04-02T17:24:23.579Z,101055.09
2023-04-02T17:26:55.946Z,101059.44
2023-04-02T17:29:35.187Z,101063.38
2023-04-02T17:32:06.518Z,101077.22
2023-04-02T17:34:33.631Z,101085.66
2023-04-02T17:37:06.359Z,101086.09
2023-04-02T17:39:43.445Z,101086.28
2023-04-02T17:42:24.644Z,101104.59
2023-04-02T17:45:09.320Z,101110.78
2023-04-02T17:47:57.708Z,101106.44
2023-04-02T17:50:30.892Z,101108.69
2023-04-02T17:53:19.135Z,101104.78
2023-04-02T17:56:27.177Z,101118.81
2023-04-02T17:59:00.839Z,101123.72
2023-04-02T18:02:03.587Z,101127.44
2023-04-02T18:05:07.543Z,101136.22
2023-04-02T18:07:46.989Z,101141.16
2023-04-02T18:10:34.914Z,101146.75
2023-04-02T18:13:13.950Z,101153.53
2023-04-02T18:16:11.636Z,101157.22
2023-04-02T18:19:18.591Z,101170.56
2023-04-02T18:22:07.910Z,101179.59
2023-04-02T18:24:54.536Z,101181.28
2023-04-02T18:27:50.793Z,101189.84
2023-04-02T18:30:26.409Z,101190.13
2023-04-02T18:33:19.222Z,101204.75
2023-04-02T18:36:09.114Z,101202.94
2023-04-02T18:39:00.146Z,101206.88
2023-04-02T18:41:45.981Z,101216.91
2023-04-02T18:44:49.200Z,101219.13
2023-04-02T18:47:27.879Z,101233.44
2023-04-02T18:50:18.730Z,101237.50
2023-04-02T18:52:46.427Z,101243.28
2023-04-02T18:55:21.489Z,101251.94
2023-04-02T18:57:52.787Z,101260.56
2023-04-02T19:00:30.414Z,101266.03
2023-04-02T19:03:02.898Z,101274.72
2023-04-02T19:05:32.641Z,101271.47
2023-04-02T19:08:05.725Z,101277.91
2023-04-02T19:10:43.823Z,101287.16
2023-04-02T19:13:16.932Z,101287.50
2023-04-02T19:16:09.735Z,101293.50
2023-04-02T19:18:52.543Z,101298.19
2023-04-02T19:21:27.448Z,101301.25
2023-04-02T19:24:12.996Z,101313.59
2023-04-02T19:26:57.269Z,101315.88
2023-04-02T19:29:57.832Z,101317.41
2023-04-02T19:32:49.972Z,101324.16
2023-04-02T19:35:26.987Z,101330.97
2023-04-02T19:38:06.008Z,101335.69
2023-04-02T19:40:42.080Z,101338.75
2023-04-02T19:43:10.596Z,101342.47
2023-04-02T19:45:46.796Z,101344.03
2023-04-02T19:48:17.303Z,101349.38
2023-04-02T19:50:45.522Z,101356.03
2023-04-02T19:53:13.395Z,101356.03
2023-04-02T19:55:41.282Z,101363.25
2023-04-02T19:58:19.935Z,101360.56
2023-04-02T20:00:47.259Z,101368.41
2023-04-02T20:03:13.968Z,101381.00
2023-04-02T20:05:40.745Z,101368.81
2023-04-02T20:08:07.676Z,101377.16
2023-04-02T20:10:35.047Z,101380.81
2023-04-02T20:13:01.929Z,101381.56
2023-04-02T20:15:28.717Z,101389.19
2023-04-02T20:17:55.504Z,101387.28
2023-04-02T20:20:22.227Z,101394.75
2023-04-02T20:22:48.849Z,101396.88
2023-04-02T20:25:16.069Z,101396.63
2023-04-02T20:27:42.768Z,101403.19
2023-04-02T20:30:10.027Z,101406.28
2023-04-02T20:32:37.986Z,101408.75
2023-04-02T20:35:06.007Z,101412.66
2023-04-02T20:37:32.950Z,101414.06
2023-04-02T20:39:59.876Z,101421.03
2023-04-02T20:42:26.737Z,101425.22
2023-04-02T20:44:53.529Z,101435.06
2023-04-02T20:47:20.652Z,101438.03
2023-04-02T20:49:47.427Z,101442.34
2023-04-02T20:52:14.071Z,101443.69
2023-04-02T20:54:40.698Z,101436.69
2023-04-02T20:57:07.365Z,101444.63
2023-04-02T20:59:34.143Z,101444.88
2023-04-02T21:02:00.746Z,101458.06
2023-04-02T21:04:28.491Z,101467.22
2023-04-02T21:06:57.075Z,101464.34
2023-04-02T21:09:24.259Z,101467.22
2023-04-02T21:11:50.933Z,101474.13
2023-04-02T21:14:18.055Z,101474.44
2023-04-02T21:16:45.299Z,101476.00
2023-04-02T21:19:11.951Z,101475.91
2023-04-02T21:21:39.506Z,101484.97
2023-04-02T21:24:08.202Z,101483.72
2023-04-02T21:26:38.201Z,101488.03
2023-04-02T21:29:06.007Z,101488.69
2023-04-02T21:31:38.481Z,101485.13
2023-04-02T21:34:06.967Z,101487.66
2023-04-02T21:36:36.326Z,101484.63
2023-04-02T21:39:08.626Z,101488.28
2023-04-02T21:41:38.242Z,101484.16
2023-04-02T21:44:08.434Z,101486.09
2023-04-02T21:46:38.602Z,101482.03
2023-04-02T21:49:07.927Z,101489.31
2023-04-02T21:51:37.569Z,101488.75
2023-04-02T21:54:04.706Z,101490.31
2023-04-02T21:56:36.891Z,101491.44
2023-04-02T21:59:04.487Z,101497.88
2023-04-02T22:01:34.158Z,101493.13
2023-04-02T22:04:02.581Z,101494.47
2023-04-02T22:06:32.172Z,101499.34
2023-04-02T22:09:01.854Z,101493.00
2023-04-02T22:11:31.617Z,101498.97
2023-04-02T22:13:59.387Z,101491.16
2023-04-02T22:16:29.790Z,101490.91
2023-04-02T22:18:58.615Z,101496.53
2023-04-02T22:21:26.334Z,101498.72
2023-04-02T22:23:53.462Z,101494.63
2023-04-02T22:26:23.001Z,101501.19
2023-04-02T22:28:50.011Z,101501.94
2023-04-02T22:31:19.615Z,101508.81
2023-04-02T22:33:47.621Z,101498.97
2023-04-02T22:36:15.868Z,101503.97
2023-04-02T22:38:42.951Z,101507.19
2023-04-02T22:41:15.482Z,101505.81
2023-04-02T22:43:44.023Z,101518.81
2023-04-02T22:46:13.336Z,101520.00
2023-04-02T22:48:40.113Z,101513.91
2023-04-02T22:51:08.567Z,101521.53
2023-04-02T22:53:36.529Z,101511.06
2023-04-02T22:56:06.815Z,101511.97
2023-04-02T22:58:34.582Z,101513.63
2023-04-02T23:01:19.680Z,101513.75
2023-04-02T23:03:46.708Z,101515.41
2023-04-02T23:06:15.540Z,101515.97
2023-04-02T23:08:44.189Z,101513.19
2023-04-02T23:11:17.355Z,101511.91
2023-04-02T23:13:48.538Z,101502.31
2023-04-02T23:16:16.920Z,101511.34
2023-04-02T23:18:48.207Z,101504.81
2023-04-02T23:21:16.876Z,101509.25
2023-04-02T23:23:44.309Z,101501.88
2023-04-02T23:26:14.547Z,101503.72
2023-04-02T23:28:42.432Z,101507.13
2023-04-02T23:31:14.367Z,101503.88
2023-04-02T23:33:41.466Z,101505.47
2023-04-02T23:36:14.828Z,101506.81
2023-04-02T23:38:41.671Z,101504.47
2023-04-02T23:41:15.345Z,101507.38
2023-04-02T23:43:42.573Z,101495.25
2023-04-02T23:46:09.500Z,101501.44
2023-04-02T23:48:36.198Z,101504.34
2023-04-02T23:51:03.423Z,101507.78
2023-04-02T23:53:30.098Z,101500.78
2023-04-02T23:55:56.822Z,101506.94
2023-04-02T23:58:23.525Z,101502.69
